sensor_id;sensor_type;location;lat;lon;timestamp;temperature;humidity
4081;DHT22;2055;50.074;8.436;2022-11-13T00:00:24;5.10;99.90
4081;DHT22;2055;50.074;8.436;2022-11-13T00:02:49;5.10;99.90
4081;DHT22;2055;50.074;8.436;2022-11-13T00:05:15;5.10;99.90
4081;DHT22;2055;50.074;8.436;2022-11-13T00:07:41;5.10;99.90
4081;DHT22;2055;50.074;8.436;2022-11-13T00:10:06;5.00;99.90
4081;DHT22;2055;50.074;8.436;2022-11-13T00:12:32;5.00;99.90
4081;DHT22;2055;50.074;8.436;2022-11-13T00:14:58;4.90;99.90
4081;DHT22;2055;50.074;8.436;2022-11-13T00:17:23;5.30;99.90
4081;DHT22;2055;50.074;8.436;2022-11-13T00:19:49;4.90;99.90
4081;DHT22;2055;50.074;8.436;2022-11-13T00:22:14;4.90;99.90
4081;DHT22;2055;50.074;8.436;2022-11-13T00:24:40;5.10;99.90
4081;DHT22;2055;50.074;8.436;2022-11-13T00:27:06;4.80;99.90
4081;DHT22;2055;50.074;8.436;2022-11-13T00:29:31;4.80;99.90
4081;DHT22;2055;50.074;8.436;2022-11-13T00:31:57;4.80;99.90
4081;DHT22;2055;50.074;8.436;2022-11-13T00:34:22;4.70;99.90
4081;DHT22;2055;50.074;8.436;2022-11-13T00:36:48;4.70;99.90
4081;DHT22;2055;50.074;8.436;2022-11-13T00:39:13;4.60;99.90
4081;DHT22;2055;50.074;8.436;2022-11-13T00:41:39;4.60;99.90
4081;DHT22;2055;50.074;8.436;2022-11-13T00:44:05;4.50;99.90
4081;DHT22;2055;50.074;8.436;2022-11-13T00:46:30;4.50;99.90
4081;DHT22;2055;50.074;8.436;2022-11-13T00:48:56;4.40;99.90
4081;DHT22;2055;50.074;8.436;2022-11-13T00:51:21;4.70;99.90
4081;DHT22;2055;50.074;8.436;2022-11-13T00:53:47;4.40;99.90
4081;DHT22;2055;50.074;8.436;2022-11-13T00:56:13;4.30;99.90
4081;DHT22;2055;50.074;8.436;2022-11-13T00:58:38;4.20;99.90
4081;DHT22;2055;50.074;8.436;2022-11-13T01:01:06;4.30;99.90
4081;DHT22;2055;50.074;8.436;2022-11-13T01:03:32;4.30;99.90
4081;DHT22;2055;50.074;8.436;2022-11-13T01:05:58;4.20;99.90
4081;DHT22;2055;50.074;8.436;2022-11-13T01:08:24;4.20;99.90
4081;DHT22;2055;50.074;8.436;2022-11-13T01:10:49;4.20;99.90
4081;DHT22;2055;50.074;8.436;2022-11-13T01:13:15;4.20;99.90
4081;DHT22;2055;50.074;8.436;2022-11-13T01:15:42;4.20;99.90
4081;DHT22;2055;50.074;8.436;2022-11-13T01:18:09;4.10;99.90
4081;DHT22;2055;50.074;8.436;2022-11-13T01:20:35;4.20;99.90
4081;DHT22;2055;50.074;8.436;2022-11-13T01:23:01;4.20;99.90
4081;DHT22;2055;50.074;8.436;2022-11-13T01:25:28;4.10;99.90
4081;DHT22;2055;50.074;8.436;2022-11-13T01:27:53;4.10;99.90
4081;DHT22;2055;50.074;8.436;2022-11-13T01:30:19;4.30;99.90
4081;DHT22;2055;50.074;8.436;2022-11-13T01:32:44;4.10;99.90
4081;DHT22;2055;50.074;8.436;2022-11-13T01:35:10;4.20;99.90
4081;DHT22;2055;50.074;8.436;2022-11-13T01:37:35;4.00;99.90
4081;DHT22;2055;50.074;8.436;2022-11-13T01:40:01;4.00;99.90
4081;DHT22;2055;50.074;8.436;2022-11-13T01:42:27;4.00;99.90
4081;DHT22;2055;50.074;8.436;2022-11-13T01:44:55;4.00;99.90
4081;DHT22;2055;50.074;8.436;2022-11-13T01:47:22;3.90;99.90
4081;DHT22;2055;50.074;8.436;2022-11-13T01:49:52;4.10;99.90
4081;DHT22;2055;50.074;8.436;2022-11-13T01:52:24;3.90;99.90
4081;DHT22;2055;50.074;8.436;2022-11-13T01:54:53;3.90;99.90
4081;DHT22;2055;50.074;8.436;2022-11-13T01:57:20;4.00;99.90
4081;DHT22;2055;50.074;8.436;2022-11-13T01:59:50;4.00;99.90
4081;DHT22;2055;50.074;8.436;2022-11-13T02:02:16;4.20;99.90
4081;DHT22;2055;50.074;8.436;2022-11-13T02:04:42;4.00;99.90
4081;DHT22;2055;50.074;8.436;2022-11-13T02:07:11;4.00;99.90
4081;DHT22;2055;50.074;8.436;2022-11-13T02:09:40;3.90;99.90
4081;DHT22;2055;50.074;8.436;2022-11-13T02:12:10;3.90;99.90
4081;DHT22;2055;50.074;8.436;2022-11-13T02:14:40;3.90;99.90
4081;DHT22;2055;50.074;8.436;2022-11-13T02:17:08;3.90;99.90
4081;DHT22;2055;50.074;8.436;2022-11-13T02:19:38;3.90;99.90
4081;DHT22;2055;50.074;8.436;2022-11-13T02:24:46;4.00;99.90
4081;DHT22;2055;50.074;8.436;2022-11-13T02:27:25;4.00;99.90
4081;DHT22;2055;50.074;8.436;2022-11-13T02:29:52;4.00;99.90
4081;DHT22;2055;50.074;8.436;2022-11-13T02:32:17;4.00;99.90
4081;DHT22;2055;50.074;8.436;2022-11-13T02:34:43;4.00;99.90
4081;DHT22;2055;50.074;8.436;2022-11-13T02:37:09;3.90;99.90
4081;DHT22;2055;50.074;8.436;2022-11-13T02:39:34;3.90;99.90
4081;DHT22;2055;50.074;8.436;2022-11-13T02:42:00;3.80;99.90
4081;DHT22;2055;50.074;8.436;2022-11-13T02:44:25;3.80;99.90
4081;DHT22;2055;50.074;8.436;2022-11-13T02:46:51;3.90;99.90
4081;DHT22;2055;50.074;8.436;2022-11-13T02:49:16;3.80;99.90
4081;DHT22;2055;50.074;8.436;2022-11-13T02:51:42;3.90;99.90
4081;DHT22;2055;50.074;8.436;2022-11-13T02:54:07;3.90;99.90
4081;DHT22;2055;50.074;8.436;2022-11-13T02:56:33;3.90;99.90
4081;DHT22;2055;50.074;8.436;2022-11-13T02:58:58;3.90;99.90
4081;DHT22;2055;50.074;8.436;2022-11-13T03:01:24;3.90;99.90
4081;DHT22;2055;50.074;8.436;2022-11-13T03:03:49;3.90;99.90
4081;DHT22;2055;50.074;8.436;2022-11-13T03:06:15;3.80;99.90
4081;DHT22;2055;50.074;8.436;2022-11-13T03:08:40;3.90;99.90
4081;DHT22;2055;50.074;8.436;2022-11-13T03:11:08;3.90;99.90
4081;DHT22;2055;50.074;8.436;2022-11-13T03:13:35;4.10;99.90
4081;DHT22;2055;50.074;8.436;2022-11-13T03:16:19;3.70;99.90
4081;DHT22;2055;50.074;8.436;2022-11-13T03:18:44;3.70;99.90
4081;DHT22;2055;50.074;8.436;2022-11-13T03:21:12;3.70;99.90
4081;DHT22;2055;50.074;8.436;2022-11-13T03:23:40;3.70;99.90
4081;DHT22;2055;50.074;8.436;2022-11-13T03:26:08;3.70;99.90
4081;DHT22;2055;50.074;8.436;2022-11-13T03:28:34;3.60;99.90
4081;DHT22;2055;50.074;8.436;2022-11-13T03:31:00;3.50;99.90
4081;DHT22;2055;50.074;8.436;2022-11-13T03:33:26;3.50;99.90
4081;DHT22;2055;50.074;8.436;2022-11-13T03:35:52;3.50;99.90
4081;DHT22;2055;50.074;8.436;2022-11-13T03:38:17;3.40;99.90
4081;DHT22;2055;50.074;8.436;2022-11-13T03:40:43;3.40;99.90
4081;DHT22;2055;50.074;8.436;2022-11-13T03:43:09;3.30;99.90
4081;DHT22;2055;50.074;8.436;2022-11-13T03:45:34;3.30;99.90
4081;DHT22;2055;50.074;8.436;2022-11-13T03:48:00;3.30;99.90
4081;DHT22;2055;50.074;8.436;2022-11-13T03:50:25;3.30;99.90
4081;DHT22;2055;50.074;8.436;2022-11-13T03:52:51;3.20;99.90
4081;DHT22;2055;50.074;8.436;2022-11-13T03:55:17;3.30;99.90
4081;DHT22;2055;50.074;8.436;2022-11-13T03:57:43;3.40;99.90
4081;DHT22;2055;50.074;8.436;2022-11-13T04:00:09;3.60;99.90
4081;DHT22;2055;50.074;8.436;2022-11-13T04:02:35;3.40;99.90
4081;DHT22;2055;50.074;8.436;2022-11-13T04:05:01;3.40;99.90
4081;DHT22;2055;50.074;8.436;2022-11-13T04:07:26;3.40;99.90
4081;DHT22;2055;50.074;8.436;2022-11-13T04:09:51;3.40;99.90
4081;DHT22;2055;50.074;8.436;2022-11-13T04:12:17;3.40;99.90
4081;DHT22;2055;50.074;8.436;2022-11-13T04:14:42;3.40;99.90
4081;DHT22;2055;50.074;8.436;2022-11-13T04:17:08;3.30;99.90
4081;DHT22;2055;50.074;8.436;2022-11-13T04:19:33;3.30;99.90
4081;DHT22;2055;50.074;8.436;2022-11-13T04:21:59;3.30;99.90
4081;DHT22;2055;50.074;8.436;2022-11-13T04:24:24;3.30;99.90
4081;DHT22;2055;50.074;8.436;2022-11-13T04:26:50;3.30;99.90
4081;DHT22;2055;50.074;8.436;2022-11-13T04:29:15;3.30;99.90
4081;DHT22;2055;50.074;8.436;2022-11-13T04:31:41;3.30;99.90
4081;DHT22;2055;50.074;8.436;2022-11-13T04:34:07;3.30;99.90
4081;DHT22;2055;50.074;8.436;2022-11-13T04:36:32;3.30;99.90
4081;DHT22;2055;50.074;8.436;2022-11-13T04:38:58;3.30;99.90
4081;DHT22;2055;50.074;8.436;2022-11-13T04:41:23;3.40;99.90
4081;DHT22;2055;50.074;8.436;2022-11-13T04:44:07;3.60;99.90
4081;DHT22;2055;50.074;8.436;2022-11-13T04:46:33;3.60;99.90
4081;DHT22;2055;50.074;8.436;2022-11-13T04:48:58;3.30;99.90
4081;DHT22;2055;50.074;8.436;2022-11-13T04:51:24;3.30;99.90
4081;DHT22;2055;50.074;8.436;2022-11-13T04:53:49;3.40;99.90
4081;DHT22;2055;50.074;8.436;2022-11-13T04:56:15;3.60;99.90
4081;DHT22;2055;50.074;8.436;2022-11-13T04:58:40;3.40;99.90
4081;DHT22;2055;50.074;8.436;2022-11-13T05:01:06;3.20;99.90
4081;DHT22;2055;50.074;8.436;2022-11-13T05:03:31;3.10;99.90
4081;DHT22;2055;50.074;8.436;2022-11-13T05:06:05;2.90;99.90
4081;DHT22;2055;50.074;8.436;2022-11-13T05:08:31;2.90;99.90
4081;DHT22;2055;50.074;8.436;2022-11-13T05:10:56;2.80;99.90
4081;DHT22;2055;50.074;8.436;2022-11-13T05:13:22;2.80;99.90
4081;DHT22;2055;50.074;8.436;2022-11-13T05:15:48;2.80;99.90
4081;DHT22;2055;50.074;8.436;2022-11-13T05:18:13;2.70;99.90
4081;DHT22;2055;50.074;8.436;2022-11-13T05:20:39;2.60;99.90
4081;DHT22;2055;50.074;8.436;2022-11-13T05:23:05;2.60;99.90
4081;DHT22;2055;50.074;8.436;2022-11-13T05:25:30;2.60;99.90
4081;DHT22;2055;50.074;8.436;2022-11-13T05:27:57;2.60;99.90
4081;DHT22;2055;50.074;8.436;2022-11-13T05:30:23;2.50;99.90
4081;DHT22;2055;50.074;8.436;2022-11-13T05:32:50;2.50;99.90
4081;DHT22;2055;50.074;8.436;2022-11-13T05:35:16;2.60;99.90
4081;DHT22;2055;50.074;8.436;2022-11-13T05:37:41;2.80;99.90
4081;DHT22;2055;50.074;8.436;2022-11-13T05:40:07;2.80;99.90
4081;DHT22;2055;50.074;8.436;2022-11-13T05:42:33;2.70;99.90
4081;DHT22;2055;50.074;8.436;2022-11-13T05:44:58;2.80;99.90
4081;DHT22;2055;50.074;8.436;2022-11-13T05:47:24;2.60;99.90
4081;DHT22;2055;50.074;8.436;2022-11-13T05:49:49;2.60;99.90
4081;DHT22;2055;50.074;8.436;2022-11-13T05:52:15;2.70;99.90
4081;DHT22;2055;50.074;8.436;2022-11-13T05:54:40;2.60;99.90
4081;DHT22;2055;50.074;8.436;2022-11-13T05:57:06;2.60;99.90
4081;DHT22;2055;50.074;8.436;2022-11-13T05:59:31;2.70;99.90
4081;DHT22;2055;50.074;8.436;2022-11-13T06:01:57;2.70;99.90
4081;DHT22;2055;50.074;8.436;2022-11-13T06:04:22;2.50;99.90
4081;DHT22;2055;50.074;8.436;2022-11-13T06:06:48;2.50;99.90
4081;DHT22;2055;50.074;8.436;2022-11-13T06:09:15;2.60;99.90
4081;DHT22;2055;50.074;8.436;2022-11-13T06:11:41;2.60;99.90
4081;DHT22;2055;50.074;8.436;2022-11-13T06:14:07;2.60;99.90
4081;DHT22;2055;50.074;8.436;2022-11-13T06:16:35;3.10;99.90
4081;DHT22;2055;50.074;8.436;2022-11-13T06:19:03;2.80;99.90
4081;DHT22;2055;50.074;8.436;2022-11-13T06:21:31;2.80;99.90
4081;DHT22;2055;50.074;8.436;2022-11-13T06:23:58;2.80;99.90
4081;DHT22;2055;50.074;8.436;2022-11-13T06:26:28;2.90;99.90
4081;DHT22;2055;50.074;8.436;2022-11-13T06:28:54;3.20;99.90
4081;DHT22;2055;50.074;8.436;2022-11-13T06:31:22;2.80;99.90
4081;DHT22;2055;50.074;8.436;2022-11-13T06:33:48;2.80;99.90
4081;DHT22;2055;50.074;8.436;2022-11-13T06:36:23;2.90;99.90
4081;DHT22;2055;50.074;8.436;2022-11-13T06:38:49;2.80;99.90
4081;DHT22;2055;50.074;8.436;2022-11-13T06:41:17;3.10;99.90
4081;DHT22;2055;50.074;8.436;2022-11-13T06:43:43;3.00;99.90
4081;DHT22;2055;50.074;8.436;2022-11-13T06:46:15;2.90;99.90
4081;DHT22;2055;50.074;8.436;2022-11-13T06:48:41;2.90;99.90
4081;DHT22;2055;50.074;8.436;2022-11-13T06:51:08;2.80;99.90
4081;DHT22;2055;50.074;8.436;2022-11-13T06:53:36;2.80;99.90
4081;DHT22;2055;50.074;8.436;2022-11-13T06:56:04;2.80;99.90
4081;DHT22;2055;50.074;8.436;2022-11-13T06:58:30;2.80;99.90
4081;DHT22;2055;50.074;8.436;2022-11-13T07:00:56;2.80;99.90
4081;DHT22;2055;50.074;8.436;2022-11-13T07:03:24;2.80;99.90
4081;DHT22;2055;50.074;8.436;2022-11-13T07:05:50;2.80;99.90
4081;DHT22;2055;50.074;8.436;2022-11-13T07:08:16;2.80;99.90
4081;DHT22;2055;50.074;8.436;2022-11-13T07:10:43;2.90;99.90
4081;DHT22;2055;50.074;8.436;2022-11-13T07:13:08;2.90;99.90
4081;DHT22;2055;50.074;8.436;2022-11-13T07:15:38;2.90;99.90
4081;DHT22;2055;50.074;8.436;2022-11-13T07:18:05;3.20;99.90
4081;DHT22;2055;50.074;8.436;2022-11-13T07:20:31;3.00;99.90
4081;DHT22;2055;50.074;8.436;2022-11-13T07:22:58;3.10;99.90
4081;DHT22;2055;50.074;8.436;2022-11-13T07:25:24;3.20;99.90
4081;DHT22;2055;50.074;8.436;2022-11-13T07:27:50;3.30;99.90
4081;DHT22;2055;50.074;8.436;2022-11-13T07:30:16;3.40;99.90
4081;DHT22;2055;50.074;8.436;2022-11-13T07:32:41;3.40;99.90
4081;DHT22;2055;50.074;8.436;2022-11-13T07:35:07;3.40;99.90
4081;DHT22;2055;50.074;8.436;2022-11-13T07:37:33;3.50;99.90
4081;DHT22;2055;50.074;8.436;2022-11-13T07:39:58;3.60;99.90
4081;DHT22;2055;50.074;8.436;2022-11-13T07:42:24;3.80;99.90
4081;DHT22;2055;50.074;8.436;2022-11-13T07:44:49;3.70;99.90
4081;DHT22;2055;50.074;8.436;2022-11-13T07:47:15;3.80;99.90
4081;DHT22;2055;50.074;8.436;2022-11-13T07:49:40;3.80;99.90
4081;DHT22;2055;50.074;8.436;2022-11-13T07:52:06;3.90;99.90
4081;DHT22;2055;50.074;8.436;2022-11-13T07:54:31;4.00;99.90
4081;DHT22;2055;50.074;8.436;2022-11-13T07:56:58;4.00;99.90
4081;DHT22;2055;50.074;8.436;2022-11-13T07:59:23;4.00;99.90
4081;DHT22;2055;50.074;8.436;2022-11-13T08:01:49;4.10;99.90
4081;DHT22;2055;50.074;8.436;2022-11-13T08:04:14;4.20;99.90
4081;DHT22;2055;50.074;8.436;2022-11-13T08:06:40;4.20;99.90
4081;DHT22;2055;50.074;8.436;2022-11-13T08:09:05;4.30;99.90
4081;DHT22;2055;50.074;8.436;2022-11-13T08:11:31;4.50;99.90
4081;DHT22;2055;50.074;8.436;2022-11-13T08:13:57;4.20;99.90
4081;DHT22;2055;50.074;8.436;2022-11-13T08:16:22;4.40;99.90
4081;DHT22;2055;50.074;8.436;2022-11-13T08:18:48;4.20;99.90
4081;DHT22;2055;50.074;8.436;2022-11-13T08:21:14;4.30;99.90
4081;DHT22;2055;50.074;8.436;2022-11-13T08:23:41;4.40;99.90
4081;DHT22;2055;50.074;8.436;2022-11-13T08:26:07;4.50;99.90
4081;DHT22;2055;50.074;8.436;2022-11-13T08:28:34;4.20;99.90
4081;DHT22;2055;50.074;8.436;2022-11-13T08:31:00;4.60;99.90
4081;DHT22;2055;50.074;8.436;2022-11-13T08:33:27;4.70;99.90
4081;DHT22;2055;50.074;8.436;2022-11-13T08:35:54;4.80;99.90
4081;DHT22;2055;50.074;8.436;2022-11-13T08:38:19;4.80;99.90
4081;DHT22;2055;50.074;8.436;2022-11-13T08:40:45;4.90;99.90
4081;DHT22;2055;50.074;8.436;2022-11-13T08:43:11;5.00;99.90
4081;DHT22;2055;50.074;8.436;2022-11-13T08:45:36;5.00;99.90
4081;DHT22;2055;50.074;8.436;2022-11-13T08:48:03;5.10;99.90
4081;DHT22;2055;50.074;8.436;2022-11-13T08:50:29;5.20;99.90
4081;DHT22;2055;50.074;8.436;2022-11-13T08:52:57;5.00;99.90
4081;DHT22;2055;50.074;8.436;2022-11-13T08:55:22;5.10;99.90
4081;DHT22;2055;50.074;8.436;2022-11-13T08:57:49;5.20;99.90
4081;DHT22;2055;50.074;8.436;2022-11-13T09:00:15;5.20;99.90
4081;DHT22;2055;50.074;8.436;2022-11-13T09:02:41;5.40;99.90
4081;DHT22;2055;50.074;8.436;2022-11-13T09:05:07;5.40;99.90
4081;DHT22;2055;50.074;8.436;2022-11-13T09:07:32;5.60;99.90
4081;DHT22;2055;50.074;8.436;2022-11-13T09:09:58;5.70;99.90
4081;DHT22;2055;50.074;8.436;2022-11-13T09:12:23;5.80;99.90
4081;DHT22;2055;50.074;8.436;2022-11-13T09:14:49;5.80;99.90
4081;DHT22;2055;50.074;8.436;2022-11-13T09:17:15;5.90;99.90
4081;DHT22;2055;50.074;8.436;2022-11-13T09:19:41;6.00;99.90
4081;DHT22;2055;50.074;8.436;2022-11-13T09:22:06;6.10;99.90
4081;DHT22;2055;50.074;8.436;2022-11-13T09:24:32;6.10;99.90
4081;DHT22;2055;50.074;8.436;2022-11-13T09:26:57;6.20;99.90
4081;DHT22;2055;50.074;8.436;2022-11-13T09:29:23;6.30;99.90
4081;DHT22;2055;50.074;8.436;2022-11-13T09:31:50;6.40;99.90
4081;DHT22;2055;50.074;8.436;2022-11-13T09:34:16;6.50;99.90
4081;DHT22;2055;50.074;8.436;2022-11-13T09:36:41;6.60;99.90
4081;DHT22;2055;50.074;8.436;2022-11-13T09:39:07;6.60;99.90
4081;DHT22;2055;50.074;8.436;2022-11-13T09:41:37;6.70;99.90
4081;DHT22;2055;50.074;8.436;2022-11-13T09:44:06;6.70;99.90
4081;DHT22;2055;50.074;8.436;2022-11-13T09:46:54;6.80;99.90
4081;DHT22;2055;50.074;8.436;2022-11-13T09:49:31;6.80;99.90
4081;DHT22;2055;50.074;8.436;2022-11-13T09:52:02;6.90;99.90
4081;DHT22;2055;50.074;8.436;2022-11-13T09:54:29;7.00;99.90
4081;DHT22;2055;50.074;8.436;2022-11-13T09:59:46;7.10;99.90
4081;DHT22;2055;50.074;8.436;2022-11-13T10:08:18;7.40;99.90
4081;DHT22;2055;50.074;8.436;2022-11-13T10:13:17;7.60;99.90
4081;DHT22;2055;50.074;8.436;2022-11-13T10:15:45;7.70;99.90
4081;DHT22;2055;50.074;8.436;2022-11-13T10:18:21;7.70;99.90
4081;DHT22;2055;50.074;8.436;2022-11-13T10:20:56;10.10;99.90
4081;DHT22;2055;50.074;8.436;2022-11-13T10:23:31;15.80;99.90
4081;DHT22;2055;50.074;8.436;2022-11-13T10:26:06;19.20;99.90
4081;DHT22;2055;50.074;8.436;2022-11-13T10:28:35;21.90;99.90
4081;DHT22;2055;50.074;8.436;2022-11-13T10:31:01;23.60;99.90
4081;DHT22;2055;50.074;8.436;2022-11-13T10:33:26;24.20;99.90
4081;DHT22;2055;50.074;8.436;2022-11-13T10:35:58;24.60;99.90
4081;DHT22;2055;50.074;8.436;2022-11-13T10:41:29;25.60;99.90
4081;DHT22;2055;50.074;8.436;2022-11-13T10:44:05;25.20;99.90
4081;DHT22;2055;50.074;8.436;2022-11-13T10:46:32;25.40;99.90
4081;DHT22;2055;50.074;8.436;2022-11-13T10:49:15;24.70;99.90
4081;DHT22;2055;50.074;8.436;2022-11-13T10:51:41;22.80;99.90
4081;DHT22;2055;50.074;8.436;2022-11-13T10:54:31;19.50;99.90
4081;DHT22;2055;50.074;8.436;2022-11-13T10:57:01;18.00;99.90
4081;DHT22;2055;50.074;8.436;2022-11-13T10:59:41;16.60;99.90
4081;DHT22;2055;50.074;8.436;2022-11-13T11:02:26;14.40;99.90
4081;DHT22;2055;50.074;8.436;2022-11-13T11:05:15;12.40;99.90
4081;DHT22;2055;50.074;8.436;2022-11-13T11:07:41;11.50;99.90
4081;DHT22;2055;50.074;8.436;2022-11-13T11:10:25;10.90;99.90
4081;DHT22;2055;50.074;8.436;2022-11-13T11:12:54;10.50;99.90
4081;DHT22;2055;50.074;8.436;2022-11-13T11:15:24;10.30;99.90
4081;DHT22;2055;50.074;8.436;2022-11-13T11:17:58;10.30;99.90
4081;DHT22;2055;50.074;8.436;2022-11-13T11:25:56;10.40;99.90
4081;DHT22;2055;50.074;8.436;2022-11-13T11:28:38;10.40;99.90
4081;DHT22;2055;50.074;8.436;2022-11-13T11:31:11;10.60;99.90
4081;DHT22;2055;50.074;8.436;2022-11-13T11:33:51;10.70;99.90
4081;DHT22;2055;50.074;8.436;2022-11-13T11:41:56;11.20;99.90
4081;DHT22;2055;50.074;8.436;2022-11-13T11:44:34;11.40;99.90
4081;DHT22;2055;50.074;8.436;2022-11-13T11:47:01;11.40;99.90
4081;DHT22;2055;50.074;8.436;2022-11-13T11:49:28;11.50;99.90
4081;DHT22;2055;50.074;8.436;2022-11-13T11:54:50;11.40;99.90
4081;DHT22;2055;50.074;8.436;2022-11-13T12:00:07;11.20;99.90
4081;DHT22;2055;50.074;8.436;2022-11-13T12:02:57;11.10;99.90
4081;DHT22;2055;50.074;8.436;2022-11-13T12:08:21;11.00;99.90
4081;DHT22;2055;50.074;8.436;2022-11-13T12:11:06;11.10;99.90
4081;DHT22;2055;50.074;8.436;2022-11-13T12:13:59;11.20;99.90
4081;DHT22;2055;50.074;8.436;2022-11-13T12:16:42;11.20;99.90
4081;DHT22;2055;50.074;8.436;2022-11-13T12:22:02;11.50;99.90
4081;DHT22;2055;50.074;8.436;2022-11-13T12:24:45;11.60;99.90
4081;DHT22;2055;50.074;8.436;2022-11-13T12:27:34;11.60;99.90
4081;DHT22;2055;50.074;8.436;2022-11-13T12:33:01;11.30;99.90
4081;DHT22;2055;50.074;8.436;2022-11-13T12:35:28;11.30;99.90
4081;DHT22;2055;50.074;8.436;2022-11-13T12:46:17;11.90;99.90
4081;DHT22;2055;50.074;8.436;2022-11-13T12:48:45;12.00;99.90
4081;DHT22;2055;50.074;8.436;2022-11-13T12:51:16;12.00;99.90
4081;DHT22;2055;50.074;8.436;2022-11-13T12:53:54;12.10;99.90
4081;DHT22;2055;50.074;8.436;2022-11-13T12:59:26;12.10;99.90
4081;DHT22;2055;50.074;8.436;2022-11-13T13:10:12;14.60;99.90
4081;DHT22;2055;50.074;8.436;2022-11-13T13:18:10;18.50;99.90
4081;DHT22;2055;50.074;8.436;2022-11-13T13:21:10;19.20;99.90
4081;DHT22;2055;50.074;8.436;2022-11-13T13:23:45;19.70;99.90
4081;DHT22;2055;50.074;8.436;2022-11-13T13:28:42;19.30;99.90
4081;DHT22;2055;50.074;8.436;2022-11-13T13:31:33;19.40;99.90
4081;DHT22;2055;50.074;8.436;2022-11-13T13:40:14;19.00;99.90
4081;DHT22;2055;50.074;8.436;2022-11-13T13:42:58;18.80;99.90
4081;DHT22;2055;50.074;8.436;2022-11-13T13:45:53;18.40;99.90
4081;DHT22;2055;50.074;8.436;2022-11-13T13:48:24;17.90;99.90
4081;DHT22;2055;50.074;8.436;2022-11-13T13:50:52;18.20;99.90
4081;DHT22;2055;50.074;8.436;2022-11-13T13:53:32;17.90;99.90
4081;DHT22;2055;50.074;8.436;2022-11-13T13:56:01;18.50;99.90
4081;DHT22;2055;50.074;8.436;2022-11-13T13:58:31;18.80;99.90
4081;DHT22;2055;50.074;8.436;2022-11-13T14:01:00;18.80;99.90
4081;DHT22;2055;50.074;8.436;2022-11-13T14:03:27;18.70;99.90
4081;DHT22;2055;50.074;8.436;2022-11-13T14:05:54;18.90;99.90
4081;DHT22;2055;50.074;8.436;2022-11-13T14:08:24;18.90;99.90
4081;DHT22;2055;50.074;8.436;2022-11-13T14:10:51;19.00;99.90
4081;DHT22;2055;50.074;8.436;2022-11-13T14:13:27;19.10;99.90
4081;DHT22;2055;50.074;8.436;2022-11-13T14:16:01;19.10;99.90
4081;DHT22;2055;50.074;8.436;2022-11-13T14:18:26;18.30;99.90
4081;DHT22;2055;50.074;8.436;2022-11-13T14:20:54;17.90;99.90
4081;DHT22;2055;50.074;8.436;2022-11-13T14:23:22;17.60;99.90
4081;DHT22;2055;50.074;8.436;2022-11-13T14:25:49;17.10;99.90
4081;DHT22;2055;50.074;8.436;2022-11-13T14:28:26;17.50;99.90
4081;DHT22;2055;50.074;8.436;2022-11-13T14:30:58;17.40;99.90
4081;DHT22;2055;50.074;8.436;2022-11-13T14:33:47;17.30;99.90
4081;DHT22;2055;50.074;8.436;2022-11-13T14:36:14;17.40;99.90
4081;DHT22;2055;50.074;8.436;2022-11-13T14:38:46;17.40;99.90
4081;DHT22;2055;50.074;8.436;2022-11-13T14:43:56;16.40;99.90
4081;DHT22;2055;50.074;8.436;2022-11-13T14:46:42;15.50;99.90
4081;DHT22;2055;50.074;8.436;2022-11-13T14:49:24;14.80;99.90
4081;DHT22;2055;50.074;8.436;2022-11-13T14:51:55;14.10;99.90
4081;DHT22;2055;50.074;8.436;2022-11-13T14:56:52;13.00;99.90
4081;DHT22;2055;50.074;8.436;2022-11-13T14:59:26;12.80;99.90
4081;DHT22;2055;50.074;8.436;2022-11-13T15:01:56;12.50;99.90
4081;DHT22;2055;50.074;8.436;2022-11-13T15:04:22;11.90;99.90
4081;DHT22;2055;50.074;8.436;2022-11-13T15:06:48;11.50;99.90
4081;DHT22;2055;50.074;8.436;2022-11-13T15:09:16;11.20;99.90
4081;DHT22;2055;50.074;8.436;2022-11-13T15:11:42;10.80;99.90
4081;DHT22;2055;50.074;8.436;2022-11-13T15:14:26;10.60;99.90
4081;DHT22;2055;50.074;8.436;2022-11-13T15:16:51;10.30;99.90
4081;DHT22;2055;50.074;8.436;2022-11-13T15:19:32;10.00;99.90
4081;DHT22;2055;50.074;8.436;2022-11-13T15:21:59;9.80;99.90
4081;DHT22;2055;50.074;8.436;2022-11-13T15:24:24;9.60;99.90
4081;DHT22;2055;50.074;8.436;2022-11-13T15:26:50;9.50;99.90
4081;DHT22;2055;50.074;8.436;2022-11-13T15:29:15;9.30;99.90
4081;DHT22;2055;50.074;8.436;2022-11-13T15:31:44;9.20;99.90
4081;DHT22;2055;50.074;8.436;2022-11-13T15:34:11;9.10;99.90
4081;DHT22;2055;50.074;8.436;2022-11-13T15:36:37;9.00;99.90
4081;DHT22;2055;50.074;8.436;2022-11-13T15:39:04;9.00;99.90
4081;DHT22;2055;50.074;8.436;2022-11-13T15:41:30;8.90;99.90
4081;DHT22;2055;50.074;8.436;2022-11-13T15:43:57;8.80;99.90
4081;DHT22;2055;50.074;8.436;2022-11-13T15:46:23;9.00;99.90
4081;DHT22;2055;50.074;8.436;2022-11-13T15:48:49;9.40;99.90
4081;DHT22;2055;50.074;8.436;2022-11-13T15:53:59;9.20;99.90
4081;DHT22;2055;50.074;8.436;2022-11-13T15:56:26;8.80;99.90
4081;DHT22;2055;50.074;8.436;2022-11-13T15:58:52;8.50;99.90
4081;DHT22;2055;50.074;8.436;2022-11-13T16:01:18;8.30;99.90
4081;DHT22;2055;50.074;8.436;2022-11-13T16:03:44;8.30;99.90
4081;DHT22;2055;50.074;8.436;2022-11-13T16:06:15;8.30;99.90
4081;DHT22;2055;50.074;8.436;2022-11-13T16:08:42;8.40;99.90
4081;DHT22;2055;50.074;8.436;2022-11-13T16:11:13;8.50;99.90
4081;DHT22;2055;50.074;8.436;2022-11-13T16:13:39;8.50;99.90
4081;DHT22;2055;50.074;8.436;2022-11-13T16:16:04;8.60;99.90
4081;DHT22;2055;50.074;8.436;2022-11-13T16:18:30;8.70;99.90
4081;DHT22;2055;50.074;8.436;2022-11-13T16:20:56;8.90;99.90
4081;DHT22;2055;50.074;8.436;2022-11-13T16:23:21;8.90;99.90
4081;DHT22;2055;50.074;8.436;2022-11-13T16:25:47;8.90;99.90
4081;DHT22;2055;50.074;8.436;2022-11-13T16:28:17;8.80;99.90
4081;DHT22;2055;50.074;8.436;2022-11-13T16:30:44;8.70;99.90
4081;DHT22;2055;50.074;8.436;2022-11-13T16:33:11;8.70;99.90
4081;DHT22;2055;50.074;8.436;2022-11-13T16:35:38;8.90;99.90
4081;DHT22;2055;50.074;8.436;2022-11-13T16:38:11;8.90;99.90
4081;DHT22;2055;50.074;8.436;2022-11-13T16:40:37;8.90;99.90
4081;DHT22;2055;50.074;8.436;2022-11-13T16:43:06;9.00;99.90
4081;DHT22;2055;50.074;8.436;2022-11-13T16:45:31;9.20;99.90
4081;DHT22;2055;50.074;8.436;2022-11-13T16:47:57;9.40;99.90
4081;DHT22;2055;50.074;8.436;2022-11-13T16:50:26;9.40;99.90
4081;DHT22;2055;50.074;8.436;2022-11-13T16:52:52;9.50;99.90
4081;DHT22;2055;50.074;8.436;2022-11-13T16:55:18;9.50;99.90
4081;DHT22;2055;50.074;8.436;2022-11-13T16:57:43;9.60;99.90
4081;DHT22;2055;50.074;8.436;2022-11-13T17:00:13;9.50;99.90
4081;DHT22;2055;50.074;8.436;2022-11-13T17:02:38;9.50;99.90
4081;DHT22;2055;50.074;8.436;2022-11-13T17:05:04;9.40;99.90
4081;DHT22;2055;50.074;8.436;2022-11-13T17:07:30;9.40;99.90
4081;DHT22;2055;50.074;8.436;2022-11-13T17:09:56;9.20;99.90
4081;DHT22;2055;50.074;8.436;2022-11-13T17:12:21;9.20;99.90
4081;DHT22;2055;50.074;8.436;2022-11-13T17:14:47;9.10;99.90
4081;DHT22;2055;50.074;8.436;2022-11-13T17:17:12;9.00;99.90
4081;DHT22;2055;50.074;8.436;2022-11-13T17:19:39;9.00;99.90
4081;DHT22;2055;50.074;8.436;2022-11-13T17:22:09;8.80;99.90
4081;DHT22;2055;50.074;8.436;2022-11-13T17:24:36;8.50;99.90
4081;DHT22;2055;50.074;8.436;2022-11-13T17:27:01;8.30;99.90
4081;DHT22;2055;50.074;8.436;2022-11-13T17:29:27;8.10;99.90
4081;DHT22;2055;50.074;8.436;2022-11-13T17:31:52;8.10;99.90
4081;DHT22;2055;50.074;8.436;2022-11-13T17:34:18;8.20;99.90
4081;DHT22;2055;50.074;8.436;2022-11-13T17:36:43;8.30;99.90
4081;DHT22;2055;50.074;8.436;2022-11-13T17:39:09;8.70;99.90
4081;DHT22;2055;50.074;8.436;2022-11-13T17:41:35;8.90;99.90
4081;DHT22;2055;50.074;8.436;2022-11-13T17:44:02;9.00;99.90